Time;durP1;ratioP1;P1;durP2;ratioP2;P2;SDS_P1;SDS_P2;PMS_P1;PMS_P2;Temp;Humidity;BMP_temperature;BMP_pressure;BME280_temperature;BME280_humidity;BME280_pressure;Samples;Min_cycle;Max_cycle;Signal;HPM_P1;HPM_P2
2023/04/30 00:00:07;;;;;;;25.02;14.77;;;;;;;12.46;63.50;94949.31;5031716;28;20034;-77
2023/04/30 00:02:32;;;;;;;36.67;15.25;;;;;;;12.06;63.69;94894.88;5042835;28;20315;-77
2023/04/30 00:04:58;;;;;;;29.08;14.30;;;;;;;12.20;63.89;94920.47;5031822;28;20037;-77
2023/04/30 00:07:23;;;;;;;20.85;13.20;;;;;;;12.17;64.03;94926.34;5032417;28;20428;-77
2023/04/30 00:09:50;;;;;;;24.83;13.93;;;;;;;12.22;63.63;94922.81;5032180;28;20087;-77
2023/04/30 00:12:15;;;;;;;26.20;13.23;;;;;;;12.22;63.70;94930.78;5031667;28;20743;-77
2023/04/30 00:14:41;;;;;;;25.05;13.02;;;;;;;11.80;63.47;94867.91;5032261;28;20120;-77
2023/04/30 00:17:06;;;;;;;30.23;13.27;;;;;;;12.30;63.79;94946.09;5032241;28;20171;-77
2023/04/30 00:19:31;;;;;;;26.60;14.38;;;;;;;12.15;63.97;94951.63;5032254;28;20033;-77
2023/04/30 00:21:57;;;;;;;24.77;13.18;;;;;;;11.83;64.63;94915.16;5032284;28;20053;-77
2023/04/30 00:24:22;;;;;;;26.52;13.00;;;;;;;11.74;64.75;94916.84;5032962;28;20041;-77
2023/04/30 00:26:48;;;;;;;24.23;12.23;;;;;;;11.85;65.47;94950.19;5033488;28;20120;-77
2023/04/30 00:29:13;;;;;;;26.00;12.88;;;;;;;11.63;65.26;94926.81;5032578;28;20076;-77
2023/04/30 00:31:39;;;;;;;25.55;12.57;;;;;;;11.61;65.06;94913.81;5033056;28;20136;-77
2023/04/30 00:34:04;;;;;;;26.13;13.68;;;;;;;11.50;65.18;94903.63;5032873;28;20029;-77
2023/04/30 00:36:30;;;;;;;20.80;12.10;;;;;;;11.55;65.08;94930.09;5033394;28;20033;-77
2023/04/30 00:38:56;;;;;;;23.58;13.35;;;;;;;11.69;65.11;94960.19;5031289;28;20527;-77
2023/04/30 00:41:22;;;;;;;23.63;12.88;;;;;;;11.51;65.47;94927.25;5031209;28;20030;-77
2023/04/30 00:43:47;;;;;;;30.52;12.02;;;;;;;11.40;65.60;94938.25;5032810;28;20144;-77
2023/04/30 00:46:13;;;;;;;20.48;12.02;;;;;;;11.40;65.47;94931.09;5030968;28;20037;-77
2023/04/30 00:48:38;;;;;;;24.38;12.93;;;;;;;11.23;65.52;94906.84;5032898;28;20041;-77
2023/04/30 00:51:04;;;;;;;25.15;12.10;;;;;;;11.54;65.52;94949.75;5032976;28;20037;-77
2023/04/30 00:53:31;;;;;;;23.58;12.63;;;;;;;11.41;65.75;94924.69;5031711;28;20496;-77
2023/04/30 00:55:56;;;;;;;24.77;11.45;;;;;;;11.33;65.72;94935.94;5032669;28;20033;-77
2023/04/30 00:58:22;;;;;;;28.70;12.35;;;;;;;11.32;65.92;94934.38;5031502;28;20091;-77
2023/04/30 01:00:48;;;;;;;27.13;13.40;;;;;;;11.19;65.64;94905.84;5032657;28;20112;-77
2023/04/30 01:03:14;;;;;;;29.02;12.50;;;;;;;11.40;65.66;94940.91;5032691;28;20043;-77
2023/04/30 01:05:39;;;;;;;27.67;12.50;;;;;;;11.41;65.31;94951.25;5031635;28;20033;-77
2023/04/30 01:08:05;;;;;;;30.40;12.18;;;;;;;11.03;65.97;94905.25;5030736;28;20038;-77
2023/04/30 01:10:38;;;;;;;19.95;11.38;;;;;;;11.16;65.92;94928.44;5031104;28;20453;-77
2023/04/30 01:13:26;;;;;;;20.30;11.27;;;;;;;11.14;66.03;94932.44;5031023;28;20071;-77
2023/04/30 01:16:16;;;;;;;25.83;10.80;;;;;;;11.04;65.91;94914.00;5031996;28;20087;-77
2023/04/30 01:19:04;;;;;;;20.25;11.80;;;;;;;11.21;65.64;94943.53;5029910;28;20118;-78
2023/04/30 01:21:32;;;;;;;22.70;11.60;;;;;;;11.14;65.78;94929.78;5028608;28;20037;-78
2023/04/30 01:24:31;;;;;;;18.90;11.48;;;;;;;11.13;65.98;94949.47;5028349;28;20528;-78
2023/04/30 01:27:20;;;;;;;20.30;11.50;;;;;;;10.85;65.92;94905.94;5028512;28;20599;-78
2023/04/30 01:29:47;;;;;;;20.83;11.63;;;;;;;11.05;66.39;94950.06;5029935;28;20052;-78
2023/04/30 01:32:12;;;;;;;19.20;10.68;;;;;;;11.04;66.21;94945.84;5028843;28;20033;-78
2023/04/30 01:34:37;;;;;;;18.50;10.27;;;;;;;10.78;66.83;94930.16;5028649;28;20515;-78
2023/04/30 01:37:40;;;;;;;20.75;10.88;;;;;;;10.90;66.64;94945.72;5030154;28;20033;-78
2023/04/30 01:40:28;;;;;;;21.48;10.90;;;;;;;10.85;66.73;94945.75;5029823;28;20557;-78
2023/04/30 01:42:59;;;;;;;20.83;10.57;;;;;;;10.89;66.71;94949.44;5028832;28;20033;-78
2023/04/30 01:45:43;;;;;;;19.45;10.98;;;;;;;10.85;67.22;94948.41;5028406;28;20065;-78
2023/04/30 01:48:32;;;;;;;22.65;12.10;;;;;;;10.82;66.95;94955.06;5028303;28;20048;-78
2023/04/30 01:51:13;;;;;;;19.08;11.50;;;;;;;10.60;67.21;94936.19;5018461;28;20049;-78
2023/04/30 01:53:41;;;;;;;20.80;10.65;;;;;;;10.37;67.91;94918.34;5033926;28;20100;-78
2023/04/30 01:56:13;;;;;;;18.67;11.50;;;;;;;10.68;67.97;94950.69;5032560;28;20041;-78
2023/04/30 01:58:39;;;;;;;21.92;11.23;;;;;;;10.62;67.08;94926.06;5032564;28;20148;-78
2023/04/30 02:01:04;;;;;;;23.23;11.48;;;;;;;10.25;67.27;94867.56;5032504;28;20526;-78
2023/04/30 02:03:32;;;;;;;21.90;12.15;;;;;;;10.76;67.75;94947.41;5033910;28;20033;-78
2023/04/30 02:05:58;;;;;;;19.67;11.07;;;;;;;10.45;67.61;94897.31;5033724;28;20029;-78
2023/04/30 02:08:23;;;;;;;24.75;13.02;;;;;;;10.42;67.60;94894.44;5032599;28;20036;-78
2023/04/30 02:10:49;;;;;;;25.40;13.30;;;;;;;10.67;67.36;94931.34;5032138;28;20100;-78
2023/04/30 02:13:14;;;;;;;25.30;11.93;;;;;;;10.77;67.38;94949.00;5033619;28;20041;-78
2023/04/30 02:15:40;;;;;;;22.55;11.93;;;;;;;10.78;67.59;94955.91;5033437;28;20029;-78
2023/04/30 02:18:05;;;;;;;27.23;12.60;;;;;;;10.58;67.80;94918.97;5032276;28;20033;-78
2023/04/30 02:20:31;;;;;;;28.33;11.93;;;;;;;10.44;67.93;94929.44;5033529;28;20048;-78
2023/04/30 02:22:56;;;;;;;22.67;12.13;;;;;;;10.54;68.16;94929.31;5033407;28;20048;-78
2023/04/30 02:25:22;;;;;;;28.70;12.93;;;;;;;10.36;67.88;94882.31;5032210;28;20136;-78
2023/04/30 02:27:49;;;;;;;23.38;12.20;;;;;;;10.54;67.32;94909.97;5031746;28;20030;-78
2023/04/30 02:30:14;;;;;;;23.23;12.57;;;;;;;10.52;67.60;94893.56;5031807;28;20033;-78
2023/04/30 02:32:40;;;;;;;26.42;13.65;;;;;;;10.69;67.77;94915.91;5031746;28;20052;-78
2023/04/30 02:35:05;;;;;;;23.10;14.05;;;;;;;10.89;66.96;94941.47;5031537;28;20583;-78
2023/04/30 02:37:31;;;;;;;24.58;13.15;;;;;;;10.89;67.06;94940.69;5032038;28;20030;-78
2023/04/30 02:39:56;;;;;;;34.95;15.13;;;;;;;10.72;67.29;94911.94;5033214;28;20117;-78
2023/04/30 02:42:22;;;;;;;26.85;13.55;;;;;;;10.89;67.57;94948.66;5033243;28;20467;-78
2023/04/30 02:44:47;;;;;;;22.50;14.57;;;;;;;10.73;67.59;94932.88;5033089;28;20087;-78
2023/04/30 02:47:13;;;;;;;26.17;13.88;;;;;;;10.33;67.35;94856.34;5031746;28;20451;-78
2023/04/30 02:49:38;;;;;;;25.25;13.90;;;;;;;10.81;67.38;94931.47;5031374;28;20041;-78
2023/04/30 02:52:04;;;;;;;19.15;12.43;;;;;;;10.71;67.76;94915.66;5031426;28;20030;-78
2023/04/30 02:54:30;;;;;;;22.63;12.82;;;;;;;10.79;67.58;94930.94;5031573;28;20036;-78
2023/04/30 02:56:55;;;;;;;24.40;13.05;;;;;;;10.62;67.34;94898.75;5031528;28;20436;-78
2023/04/30 02:59:21;;;;;;;22.35;12.57;;;;;;;10.99;67.47;94949.31;5031372;28;20033;-78
2023/04/30 03:01:46;;;;;;;23.02;11.10;;;;;;;10.73;67.42;94916.97;5032458;28;20042;-78
2023/04/30 03:04:11;;;;;;;21.75;11.75;;;;;;;10.66;67.61;94908.53;5029822;28;20025;-78
2023/04/30 03:06:37;;;;;;;26.48;12.38;;;;;;;11.03;67.29;94960.16;5032775;28;20527;-78
2023/04/30 03:09:02;;;;;;;29.20;11.77;;;;;;;11.00;67.14;94956.22;5031518;28;20110;-78
2023/04/30 03:11:28;;;;;;;28.33;11.25;;;;;;;10.99;67.29;94961.78;5030947;28;20039;-78
2023/04/30 03:13:54;;;;;;;25.52;11.15;;;;;;;10.67;67.38;94906.69;5030916;28;20025;-78
2023/04/30 03:16:20;;;;;;;24.00;11.38;;;;;;;10.69;67.63;94918.56;5031022;28;20488;-78
2023/04/30 03:18:47;;;;;;;18.48;11.10;;;;;;;11.02;67.82;94963.91;5032435;28;20127;-78
2023/04/30 03:21:12;;;;;;;20.73;10.82;;;;;;;10.97;67.78;94953.34;5032508;28;20463;-77
2023/04/30 03:23:38;;;;;;;16.88;10.43;;;;;;;10.92;67.58;94940.91;5030251;28;20049;-77
2023/04/30 03:26:04;;;;;;;18.52;11.13;;;;;;;10.85;67.30;94919.22;5031900;28;20458;-77
2023/04/30 03:28:29;;;;;;;18.92;11.80;;;;;;;10.81;67.31;94913.69;5030569;28;20041;-77
2023/04/30 03:30:55;;;;;;;29.52;11.77;;;;;;;11.10;66.22;94965.94;5032507;28;20084;-77
2023/04/30 03:33:20;;;;;;;20.45;10.40;;;;;;;11.09;66.75;94961.69;5031994;28;20045;-78
2023/04/30 03:35:46;;;;;;;21.83;11.13;;;;;;;11.15;66.70;94965.88;5032118;28;20055;-77
2023/04/30 03:38:11;;;;;;;20.65;11.32;;;;;;;11.23;66.99;94971.34;5031807;28;20420;-77
2023/04/30 03:40:37;;;;;;;18.85;11.80;;;;;;;11.23;67.05;94978.53;5031701;28;20557;-77
2023/04/30 03:43:02;;;;;;;22.10;12.30;;;;;;;11.01;67.16;94946.38;5030385;28;20038;-77
2023/04/30 03:45:27;;;;;;;20.70;11.63;;;;;;;11.26;67.28;94985.94;5030272;28;20029;-77
2023/04/30 03:47:53;;;;;;;18.83;10.38;;;;;;;11.13;67.25;94960.88;5030025;28;20104;-78
2023/04/30 03:50:19;;;;;;;17.70;9.88;;;;;;;11.12;66.61;94961.94;5030233;28;20037;-78
2023/04/30 03:52:45;;;;;;;20.08;10.15;;;;;;;11.38;65.94;94991.63;5031951;28;20103;-77
2023/04/30 03:55:11;;;;;;;19.25;9.90;;;;;;;11.14;65.48;94957.13;5031719;28;20034;-77
2023/04/30 03:57:38;;;;;;;25.58;9.23;;;;;;;11.40;64.67;95005.44;5029699;28;20026;-78
2023/04/30 04:00:12;;;;;;;16.05;9.13;;;;;;;11.19;64.41;94980.19;5030075;28;20037;-78
2023/04/30 04:02:38;;;;;;;13.55;8.13;;;;;;;11.18;64.22;94992.66;5031295;28;20037;-77
2023/04/30 04:05:03;;;;;;;12.15;7.78;;;;;;;10.83;65.11;94979.75;5029953;28;20025;-77
2023/04/30 04:07:29;;;;;;;24.20;12.90;;;;;;;10.92;64.16;94988.66;5030953;28;20037;-78
2023/04/30 04:09:54;;;;;;;14.93;7.95;;;;;;;10.78;64.03;94954.03;5030150;28;20038;-77
2023/04/30 04:12:20;;;;;;;14.00;8.00;;;;;;;10.83;64.10;94972.53;5030790;28;20060;-77
2023/04/30 04:14:46;;;;;;;18.35;8.07;;;;;;;10.69;63.72;94949.59;5029914;28;20598;-77
2023/04/30 04:17:11;;;;;;;16.45;8.02;;;;;;;10.82;63.58;94955.06;5029786;28;20116;-77
2023/04/30 04:19:37;;;;;;;11.80;6.90;;;;;;;11.14;63.41;94965.06;5030983;28;20039;-77
2023/04/30 04:22:03;;;;;;;16.75;8.02;;;;;;;11.35;62.57;95002.03;5030791;28;20065;-77
2023/04/30 04:24:28;;;;;;;15.07;8.05;;;;;;;11.12;62.87;94966.44;5030712;28;20489;-77
2023/04/30 04:26:54;;;;;;;13.02;7.88;;;;;;;11.02;62.92;94974.50;5030870;28;20034;-77
2023/04/30 04:29:20;;;;;;;19.90;7.75;;;;;;;11.26;62.52;95007.19;5029606;28;20480;-77
2023/04/30 04:31:47;;;;;;;18.58;7.20;;;;;;;10.91;62.60;94939.31;5030658;28;20103;-78
2023/04/30 04:34:14;;;;;;;17.70;8.30;;;;;;;10.21;62.82;94851.44;5029455;28;20424;-78
2023/04/30 04:36:40;;;;;;;15.15;9.20;;;;;;;11.31;62.96;95009.78;5029613;28;20399;-78
2023/04/30 04:39:05;;;;;;;21.75;13.95;;;;;;;11.44;62.52;95017.06;5029696;28;20045;-78
2023/04/30 04:41:32;;;;;;;50.13;24.23;;;;;;;11.60;62.22;95020.34;5031044;28;20025;-78
2023/04/30 04:43:58;;;;;;;63.78;36.63;;;;;;;10.83;61.91;94885.00;5029182;28;20040;-78
2023/04/30 04:46:24;;;;;;;59.97;39.63;;;;;;;11.57;61.50;94989.03;5029420;28;20034;-78
2023/04/30 04:48:53;;;;;;;74.10;43.75;;;;;;;11.72;61.78;95018.09;5029136;28;20052;-77
2023/04/30 04:51:19;;;;;;;64.60;37.92;;;;;;;11.79;61.32;95023.09;5029141;28;20030;-78
2023/04/30 04:53:45;;;;;;;64.00;36.85;;;;;;;11.85;61.18;95020.06;5029000;28;20032;-78
2023/04/30 04:56:10;;;;;;;42.90;22.55;;;;;;;10.96;60.78;94878.25;5028863;28;20033;-78
2023/04/30 04:58:35;;;;;;;40.40;20.83;;;;;;;11.69;60.70;94993.94;5030791;28;20069;-78
2023/04/30 05:01:01;;;;;;;32.13;18.90;;;;;;;11.65;60.74;94982.31;5029107;28;20492;-78
2023/04/30 05:03:30;;;;;;;38.97;23.63;;;;;;;11.79;61.13;95009.78;5030185;28;20025;-78
2023/04/30 05:05:55;;;;;;;56.83;24.70;;;;;;;11.88;60.89;95002.78;5028740;28;20156;-78
2023/04/30 05:08:21;;;;;;;47.05;23.63;;;;;;;11.75;60.44;94976.91;5030334;28;20033;-78
2023/04/30 05:10:46;;;;;;;49.80;23.42;;;;;;;12.05;60.84;95028.88;5029921;28;20040;-77
2023/04/30 05:13:12;;;;;;;31.05;15.45;;;;;;;12.16;60.39;95023.13;5028692;28;20526;-77
2023/04/30 05:15:37;;;;;;;29.75;15.75;;;;;;;12.31;60.05;95038.88;5028187;28;20472;-78
2023/04/30 05:18:03;;;;;;;29.27;16.10;;;;;;;12.37;59.76;95045.69;5028718;28;20033;-77
2023/04/30 05:20:28;;;;;;;39.85;18.35;;;;;;;12.24;60.15;95024.34;5028766;28;20039;-78
2023/04/30 05:22:54;;;;;;;40.15;17.90;;;;;;;12.38;59.96;95036.66;5029922;28;20076;-78
2023/04/30 05:25:19;;;;;;;26.80;15.55;;;;;;;12.35;60.12;95021.28;5028544;28;20030;-78
2023/04/30 05:27:45;;;;;;;22.30;12.98;;;;;;;12.25;59.42;94988.72;5027955;28;20063;-78
2023/04/30 05:30:11;;;;;;;27.08;15.50;;;;;;;12.17;59.11;94974.22;5030139;28;20428;-78
2023/04/30 05:32:36;;;;;;;27.95;14.82;;;;;;;12.43;59.10;95003.09;5030354;28;20170;-78
2023/04/30 05:35:02;;;;;;;27.83;13.82;;;;;;;12.27;59.18;94995.34;5028806;28;20116;-78
2023/04/30 05:37:27;;;;;;;22.02;13.63;;;;;;;12.31;59.03;95004.31;5029030;28;20459;-78
2023/04/30 05:39:53;;;;;;;21.95;11.50;;;;;;;12.44;59.13;95015.28;5011733;28;20079;-78
2023/04/30 05:42:19;;;;;;;24.10;11.57;;;;;;;12.28;58.61;94993.47;5028675;28;20526;-78
2023/04/30 05:44:45;;;;;;;26.70;11.48;;;;;;;12.47;58.74;95012.84;5028600;28;20029;-78
2023/04/30 05:47:10;;;;;;;22.20;10.48;;;;;;;12.49;58.86;95039.16;5029565;28;20108;-78
2023/04/30 05:49:36;;;;;;;20.63;11.00;;;;;;;12.42;59.03;95007.63;5028366;28;20091;-78
2023/04/30 05:52:02;;;;;;;30.30;11.50;;;;;;;12.43;59.31;95033.13;5029748;28;20044;-78
2023/04/30 05:54:28;;;;;;;22.10;10.38;;;;;;;12.42;59.37;95004.97;5029995;28;20026;-78
2023/04/30 05:56:55;;;;;;;25.23;11.25;;;;;;;12.45;59.71;95019.53;5028376;28;20044;-78
2023/04/30 05:59:21;;;;;;;23.63;11.65;;;;;;;12.49;59.29;95007.25;5028525;28;20412;-78
2023/04/30 06:01:46;;;;;;;25.42;10.98;;;;;;;12.82;59.26;95043.44;5028404;28;20045;-78
2023/04/30 06:04:12;;;;;;;30.35;14.35;;;;;;;12.56;59.59;95010.34;5029909;28;20109;-78
2023/04/30 06:06:37;;;;;;;32.90;13.80;;;;;;;12.61;59.01;94992.41;5028399;28;20489;-78
2023/04/30 06:09:03;;;;;;;26.88;15.15;;;;;;;13.02;59.53;95039.66;5029448;28;20034;-78
2023/04/30 06:11:29;;;;;;;24.25;14.48;;;;;;;12.50;59.39;94975.06;5029902;28;20041;-78
2023/04/30 06:13:55;;;;;;;34.60;14.80;;;;;;;13.00;59.02;95045.28;5028354;28;20511;-78
2023/04/30 06:16:20;;;;;;;30.95;12.68;;;;;;;12.46;59.25;94997.19;5028556;28;20033;-78
2023/04/30 06:18:46;;;;;;;27.45;13.55;;;;;;;12.55;59.33;95022.84;5028142;28;20486;-78
2023/04/30 06:21:11;;;;;;;30.73;13.27;;;;;;;13.06;58.94;95054.75;5028192;28;20496;-78
2023/04/30 06:23:37;;;;;;;31.55;13.65;;;;;;;13.03;59.03;95043.91;5028994;28;20057;-78
2023/04/30 06:26:02;;;;;;;20.95;12.27;;;;;;;12.55;58.84;94980.28;5028304;28;20136;-78
2023/04/30 06:28:28;;;;;;;28.73;12.80;;;;;;;12.97;59.52;95053.84;5028177;28;20041;-78
2023/04/30 06:30:54;;;;;;;33.17;14.13;;;;;;;13.03;59.23;95055.34;5029323;28;20041;-78
2023/04/30 06:33:20;;;;;;;29.77;15.02;;;;;;;13.13;58.93;95063.19;5027848;28;20069;-78
2023/04/30 06:35:46;;;;;;;34.55;16.13;;;;;;;13.16;58.79;95037.06;5027948;28;20064;-78
2023/04/30 06:38:12;;;;;;;45.63;19.02;;;;;;;13.13;58.95;95039.22;5031122;28;20048;-78
2023/04/30 06:40:37;;;;;;;29.00;14.98;;;;;;;13.15;58.45;95041.59;5031647;28;20047;-79
2023/04/30 06:43:03;;;;;;;29.63;16.10;;;;;;;13.00;57.64;95004.56;5031998;28;20034;-78
2023/04/30 06:45:29;;;;;;;22.48;13.35;;;;;;;12.86;58.19;95027.69;5032645;28;20493;-78
2023/04/30 06:47:55;;;;;;;23.35;13.23;;;;;;;12.92;57.53;94994.59;5033334;28;20103;-78
2023/04/30 06:50:20;;;;;;;26.00;13.85;;;;;;;13.16;57.18;95015.78;5031697;28;20045;-78
2023/04/30 06:52:46;;;;;;;30.25;15.90;;;;;;;12.71;57.50;94996.78;5031631;28;20099;-78
2023/04/30 06:55:12;;;;;;;25.70;14.40;;;;;;;13.17;57.04;95041.31;5032626;28;20091;-78
2023/04/30 06:57:38;;;;;;;30.90;14.57;;;;;;;12.91;58.34;95035.59;5031310;28;20103;-78
2023/04/30 07:00:07;;;;;;;32.40;15.88;;;;;;;13.19;58.63;95045.28;5031423;28;20107;-78
2023/04/30 07:02:33;;;;;;;29.50;15.60;;;;;;;13.35;58.64;95054.56;5031034;28;20039;-78
2023/04/30 07:04:58;;;;;;;24.98;14.75;;;;;;;13.39;58.22;95041.47;5031055;28;20124;-78
2023/04/30 07:07:24;;;;;;;30.65;15.70;;;;;;;13.71;57.82;95054.72;5031022;28;20045;-78
2023/04/30 07:09:49;;;;;;;24.67;15.15;;;;;;;13.94;57.11;95058.28;5031040;28;20502;-78
2023/04/30 07:12:15;;;;;;;40.63;15.90;;;;;;;14.04;56.11;95055.38;5032659;28;20082;-78
2023/04/30 07:14:41;;;;;;;28.52;15.05;;;;;;;13.77;56.92;95042.06;5030918;28;20511;-78
2023/04/30 07:17:06;;;;;;;29.02;15.50;;;;;;;13.86;56.62;95026.97;5030994;28;20033;-78
2023/04/30 07:19:31;;;;;;;24.92;15.13;;;;;;;13.83;55.86;95014.22;5032798;28;20052;-78
2023/04/30 07:21:57;;;;;;;28.70;14.93;;;;;;;14.20;55.42;95048.66;5030838;28;20128;-78
2023/04/30 07:24:23;;;;;;;22.67;10.95;;;;;;;14.34;54.74;95067.31;5032164;28;20089;-78
2023/04/30 07:26:48;;;;;;;28.15;11.40;;;;;;;13.88;53.99;94987.50;5032083;28;20063;-78
2023/04/30 07:29:14;;;;;;;33.75;14.98;;;;;;;14.37;55.10;95058.72;5030788;28;20102;-78
2023/04/30 07:31:39;;;;;;;25.45;13.15;;;;;;;14.29;54.91;95022.06;5030825;28;20498;-78
2023/04/30 07:34:04;;;;;;;25.65;12.27;;;;;;;14.65;54.35;95057.56;5030534;28;20036;-78
2023/04/30 07:36:30;;;;;;;25.85;12.63;;;;;;;14.57;54.26;95044.19;5030652;28;20037;-78
2023/04/30 07:38:55;;;;;;;26.33;11.95;;;;;;;14.55;54.32;95057.03;5030767;28;20047;-78
2023/04/30 07:41:24;;;;;;;28.35;10.80;;;;;;;14.36;53.27;95014.44;5029224;28;20420;-78
2023/04/30 07:43:49;;;;;;;27.27;11.73;;;;;;;14.74;53.66;95068.31;5010416;28;20033;-78
2023/04/30 07:46:15;;;;;;;24.52;11.20;;;;;;;14.48;53.65;95048.66;5010517;28;20132;-78
2023/04/30 07:48:40;;;;;;;22.65;12.05;;;;;;;14.70;53.17;95051.34;5010530;28;20041;-78
2023/04/30 07:51:06;;;;;;;24.65;10.18;;;;;;;15.01;52.68;95065.56;5011550;28;20569;-78
2023/04/30 07:53:31;;;;;;;22.48;11.05;;;;;;;14.93;52.38;95044.13;5010358;28;20041;-78
2023/04/30 07:55:56;;;;;;;25.02;10.43;;;;;;;14.94;52.10;95069.75;5011727;28;20448;-78
2023/04/30 07:58:22;;;;;;;22.88;11.00;;;;;;;14.31;52.37;94993.22;4994335;28;20046;-78
2023/04/30 08:00:47;;;;;;;23.60;11.18;;;;;;;14.82;52.58;95056.13;5010546;28;20052;-78
2023/04/30 08:03:13;;;;;;;22.08;10.30;;;;;;;14.81;52.73;95033.19;5010188;28;20040;-78
2023/04/30 08:05:39;;;;;;;23.27;9.65;;;;;;;15.07;52.93;95037.63;5011433;28;20422;-78
2023/04/30 08:08:05;;;;;;;16.55;7.32;;;;;;;15.17;51.17;95060.66;5042516;28;20088;-78
2023/04/30 08:10:30;;;;;;;19.80;8.13;;;;;;;14.88;51.34;95049.56;5009883;28;20029;-78
2023/04/30 08:12:56;;;;;;;17.10;7.97;;;;;;;14.67;51.67;95041.25;5043064;28;20524;-78
2023/04/30 08:15:21;;;;;;;18.85;7.68;;;;;;;14.79;51.74;95044.19;5043158;28;20033;-78
2023/04/30 08:17:50;;;;;;;18.33;7.28;;;;;;;14.70;51.43;95021.97;5011709;28;20037;-78
2023/04/30 08:20:16;;;;;;;19.10;6.85;;;;;;;14.87;51.54;95037.34;5043341;28;20061;-78
2023/04/30 08:22:42;;;;;;;15.27;6.20;;;;;;;14.61;51.23;94999.78;5010044;28;20131;-78
2023/04/30 08:25:11;;;;;;;10.38;6.60;;;;;;;14.98;51.23;95086.72;5011522;28;20492;-78
2023/04/30 08:27:36;;;;;;;12.82;5.25;;;;;;;14.62;51.57;95044.06;5011922;28;20436;-78
2023/04/30 08:30:02;;;;;;;14.02;5.60;;;;;;;14.52;51.18;95022.94;5043016;28;20136;-78
2023/04/30 08:32:28;;;;;;;9.68;5.97;;;;;;;14.35;51.94;95002.19;5010022;28;20033;-78
2023/04/30 08:34:53;;;;;;;12.27;5.10;;;;;;;14.61;53.91;95043.25;5009938;28;20033;-78
2023/04/30 08:37:19;;;;;;;14.55;5.65;;;;;;;14.73;56.28;95064.06;5009855;28;20034;-78
2023/04/30 08:39:44;;;;;;;12.25;4.75;;;;;;;14.66;54.47;95037.00;5010112;28;20041;-78
2023/04/30 08:42:13;;;;;;;15.70;6.18;;;;;;;14.92;53.74;95075.38;5043101;28;20475;-78
2023/04/30 08:44:42;;;;;;;17.38;5.60;;;;;;;14.65;52.57;95046.09;5010966;28;20442;-78
2023/04/30 08:47:12;;;;;;;14.60;5.85;;;;;;;14.64;52.50;95047.22;5009880;28;20457;-78
2023/04/30 08:49:38;;;;;;;11.50;5.50;;;;;;;14.85;52.08;95064.34;5011075;28;20061;-78
2023/04/30 08:52:03;;;;;;;18.73;6.30;;;;;;;14.95;51.26;95064.09;5042774;28;20535;-78
2023/04/30 08:54:31;;;;;;;14.45;5.78;;;;;;;14.88;51.56;95044.25;5010822;28;20044;-78
2023/04/30 08:56:56;;;;;;;11.90;4.72;;;;;;;14.82;50.86;95032.91;5042518;28;20038;-78
2023/04/30 08:59:22;;;;;;;7.50;3.80;;;;;;;14.87;50.83;95038.13;5010668;28;20030;-78
2023/04/30 09:01:48;;;;;;;9.68;4.63;;;;;;;14.88;51.56;95020.22;5010064;28;20034;-78
2023/04/30 09:04:13;;;;;;;14.35;5.30;;;;;;;14.81;50.88;94967.25;5011208;28;20113;-78
2023/04/30 09:06:38;;;;;;;12.93;4.63;;;;;;;14.96;50.00;94996.22;5009361;28;20037;-78
2023/04/30 09:09:15;;;;;;;12.25;4.90;;;;;;;15.13;49.93;95010.78;5010976;28;20040;-78
2023/04/30 09:11:41;;;;;;;12.00;5.30;;;;;;;15.35;50.48;95034.78;5042469;28;20473;-78
2023/04/30 09:14:07;;;;;;;11.63;5.15;;;;;;;15.36;49.95;95037.16;5042400;28;20033;-78
2023/04/30 09:16:59;;;;;;;15.55;6.47;;;;;;;15.33;50.25;95023.66;5042169;28;20041;-78
2023/04/30 09:19:26;;;;;;;;;;;;;;;15.30;49.85;95016.22;5010930;28;20124;-78
2023/04/30 09:21:51;;;;;;;10.32;4.60;;;;;;;15.40;49.82;95024.00;5009555;28;19917;-78
2023/04/30 09:24:17;;;;;;;11.88;5.15;;;;;;;15.27;50.14;94988.25;5010548;28;20104;-78
2023/04/30 09:26:45;;;;;;;7.60;4.65;;;;;;;15.66;49.54;95011.56;5009369;28;20036;-78
2023/04/30 09:29:11;;;;;;;7.70;4.65;;;;;;;15.67;49.01;94991.75;5042252;28;20040;-78
2023/04/30 09:31:37;;;;;;;10.43;5.07;;;;;;;16.07;48.15;95000.50;5010595;28;20033;-78
2023/04/30 09:34:03;;;;;;;15.35;5.03;;;;;;;16.16;47.68;94982.59;5010759;28;20097;-78
2023/04/30 09:36:30;;;;;;;10.60;5.57;;;;;;;16.33;47.11;94989.81;5042160;28;20029;-78
2023/04/30 09:39:04;;;;;;;9.15;4.55;;;;;;;16.38;46.26;94968.28;5041825;28;20029;-78
2023/04/30 09:41:30;;;;;;;6.05;4.22;;;;;;;16.80;45.52;94988.13;5010240;28;20040;-78
2023/04/30 09:43:56;;;;;;;11.23;4.82;;;;;;;16.98;45.27;94980.88;5010528;28;20041;-78
2023/04/30 09:46:33;;;;;;;11.20;4.38;;;;;;;16.74;45.13;94973.34;5009166;28;20030;-78
2023/04/30 09:49:00;;;;;;;14.13;5.88;;;;;;;17.04;45.24;94986.84;5010591;28;20185;-79
2023/04/30 09:51:26;;;;;;;6.80;3.50;;;;;;;16.70;44.61;94959.00;5010593;28;20065;-78
2023/04/30 09:53:52;;;;;;;9.80;4.63;;;;;;;16.07;45.21;94856.06;5041965;28;20041;-78
2023/04/30 09:56:23;;;;;;;5.53;3.72;;;;;;;16.86;44.86;94989.53;5010610;28;20390;-78
2023/04/30 09:58:53;;;;;;;6.80;3.92;;;;;;;16.69;44.96;94962.00;5041927;28;20531;-78
2023/04/30 10:01:28;;;;;;;8.20;4.18;;;;;;;17.30;44.61;94982.22;5010323;28;20040;-78
2023/04/30 10:03:54;;;;;;;7.63;4.47;;;;;;;18.01;43.06;94963.59;5010188;28;20042;-78
2023/04/30 10:06:24;;;;;;;10.02;4.30;;;;;;;18.88;41.50;94973.41;5041674;28;20042;-78
2023/04/30 10:08:56;;;;;;;9.35;3.30;;;;;;;19.44;39.53;94968.38;5041467;28;20038;-78
2023/04/30 10:11:26;;;;;;;10.48;3.60;;;;;;;20.47;39.25;94973.53;5008071;28;20116;-78
2023/04/30 10:14:10;;;;;;;6.35;3.40;;;;;;;21.40;36.91;94969.59;5044604;28;20034;-79
2023/04/30 10:16:59;;;;;;;8.68;3.63;;;;;;;21.31;35.59;94961.66;5045531;28;20042;-79
2023/04/30 10:19:29;;;;;;;7.53;3.30;;;;;;;21.56;35.91;94965.78;5014002;28;20022;-79
2023/04/30 10:21:55;;;;;;;6.55;3.17;;;;;;;21.39;35.70;94968.00;5045429;28;20501;-79
2023/04/30 10:24:20;;;;;;;5.97;3.33;;;;;;;20.11;37.45;94948.25;5013758;28;20478;-79
2023/04/30 10:26:47;;;;;;;12.55;3.88;;;;;;;19.14;39.53;94961.59;5045508;28;20117;-78
2023/04/30 10:29:14;;;;;;;11.68;3.60;;;;;;;18.56;41.24;95009.06;5045537;28;20026;-78
2023/04/30 10:31:46;;;;;;;11.50;3.63;;;;;;;17.64;45.17;95019.63;5045296;28;20478;-78
2023/04/30 10:34:27;;;;;;;7.63;3.72;;;;;;;16.58;49.55;95021.19;5011842;28;20030;-78
2023/04/30 10:36:59;;;;;;;5.03;3.80;;;;;;;15.84;53.24;95028.44;5013123;28;20034;-78
2023/04/30 10:39:28;;;;;;;9.20;3.55;;;;;;;15.20;58.38;95013.81;5013323;28;20489;-78
2023/04/30 10:42:08;;;;;;;10.52;4.13;;;;;;;14.54;62.38;95064.25;5013616;28;20030;-78
2023/04/30 10:44:37;;;;;;;10.85;5.75;;;;;;;14.20;65.94;95013.97;5044729;28;20034;-78
2023/04/30 10:47:05;;;;;;;11.60;4.55;;;;;;;14.12;65.00;95001.34;5045107;28;20041;-78
2023/04/30 10:49:30;;;;;;;11.18;5.72;;;;;;;14.57;70.39;94991.56;5044607;28;20504;-78
2023/04/30 10:52:01;;;;;;;8.40;5.68;;;;;;;14.84;69.38;94985.34;5013336;28;20117;-78
2023/04/30 10:54:28;;;;;;;9.95;5.43;;;;;;;15.41;70.67;95012.97;5012109;28;20409;-78
2023/04/30 10:57:09;;;;;;;9.27;5.82;;;;;;;15.76;70.27;94987.22;5012947;28;20026;-78
2023/04/30 10:59:35;;;;;;;7.65;5.40;;;;;;;16.10;66.75;94981.16;5044953;28;20037;-77
2023/04/30 11:02:02;;;;;;;8.88;5.78;;;;;;;16.55;66.29;94996.94;5012894;28;20034;-77
2023/04/30 11:04:27;;;;;;;11.55;7.95;;;;;;;17.51;79.18;95001.84;5013497;28;20029;-78
2023/04/30 11:06:53;;;;;;;6.97;5.57;;;;;;;18.07;76.24;95006.03;5013052;28;20084;-77
2023/04/30 11:09:19;;;;;;;5.80;4.95;;;;;;;18.18;63.03;94971.53;5013302;28;20070;-78
2023/04/30 11:11:46;;;;;;;6.22;5.45;;;;;;;18.51;68.21;94929.47;5044714;28;20121;-78
2023/04/30 11:14:18;;;;;;;5.20;3.30;;;;;;;18.55;52.85;94972.53;5044679;28;20389;-78
2023/04/30 11:16:50;;;;;;;5.65;3.53;;;;;;;18.51;49.67;94991.22;5013057;28;20057;-78
2023/04/30 11:19:15;;;;;;;5.40;3.28;;;;;;;18.21;51.82;94957.47;5011610;28;20033;-78
2023/04/30 11:22:01;;;;;;;6.30;2.90;;;;;;;18.18;49.27;94974.22;5013186;28;20390;-78